createdAt,value
2022-08-26T00:01:31.526Z,5.90
2022-08-26T00:03:59.232Z,5.93
2022-08-26T00:06:26.486Z,6.97
2022-08-26T00:08:53.967Z,6.72
2022-08-26T00:11:26.562Z,7.38
2022-08-26T00:13:55.570Z,6.78
2022-08-26T00:16:28.263Z,6.97
2022-08-26T00:18:55.744Z,6.75
2022-08-26T00:21:22.876Z,6.55
2022-08-26T00:23:50.523Z,7.97
2022-08-26T00:26:17.856Z,6.40
2022-08-26T00:28:44.983Z,6.32
2022-08-26T00:31:12.384Z,6.97
2022-08-26T00:33:40.211Z,6.32
2022-08-26T00:36:07.712Z,6.65
2022-08-26T00:38:37.855Z,6.80
2022-08-26T00:41:05.360Z,6.68
2022-08-26T00:43:46.253Z,7.38
2022-08-26T00:46:24.221Z,7.28
2022-08-26T00:48:54.402Z,7.88
2022-08-26T00:51:23.631Z,7.20
2022-08-26T00:53:58.196Z,6.22
2022-08-26T00:56:30.964Z,6.75
2022-08-26T00:59:02.353Z,5.65
2022-08-26T01:01:32.396Z,6.93
2022-08-26T01:04:01.014Z,7.15
2022-08-26T01:06:28.553Z,6.95
2022-08-26T01:08:56.575Z,7.00
2022-08-26T01:11:24.793Z,7.10
2022-08-26T01:13:54.794Z,7.50
2022-08-26T01:16:24.860Z,7.07
2022-08-26T01:18:55.669Z,7.03
2022-08-26T01:21:29.430Z,7.88
2022-08-26T01:23:57.900Z,6.55
2022-08-26T01:26:34.163Z,6.70
2022-08-26T01:29:03.697Z,6.63
2022-08-26T01:31:37.628Z,6.43
2022-08-26T01:34:15.690Z,8.20
2022-08-26T01:36:43.978Z,7.22
2022-08-26T01:39:14.034Z,6.60
2022-08-26T01:41:44.149Z,5.93
2022-08-26T01:44:18.484Z,7.10
2022-08-26T01:46:47.429Z,7.77
2022-08-26T01:49:15.672Z,6.65
2022-08-26T01:51:44.492Z,6.70
2022-08-26T01:54:13.667Z,7.57
2022-08-26T01:56:41.172Z,6.72
2022-08-26T01:59:12.174Z,7.80
2022-08-26T02:01:39.622Z,7.30
2022-08-26T02:04:12.526Z,8.52
2022-08-26T02:06:39.757Z,7.47
2022-08-26T02:09:07.422Z,8.27
2022-08-26T02:11:36.767Z,7.45
2022-08-26T02:14:10.657Z,7.28
2022-08-26T02:16:42.212Z,7.15
2022-08-26T02:19:17.096Z,6.75
2022-08-26T02:21:45.910Z,8.18
2022-08-26T02:24:21.813Z,7.38
2022-08-26T02:26:49.384Z,6.30
2022-08-26T02:29:26.943Z,7.03
2022-08-26T02:31:57.926Z,7.07
2022-08-26T02:34:32.716Z,7.90
2022-08-26T02:39:29.648Z,8.00
2022-08-26T02:41:57.605Z,6.85
2022-08-26T02:44:25.726Z,8.00
2022-08-26T02:46:54.553Z,7.03
2022-08-26T02:49:23.540Z,7.82
2022-08-26T02:51:51.285Z,7.85
2022-08-26T02:54:21.285Z,7.90
2022-08-26T02:56:48.898Z,7.50
2022-08-26T02:59:16.360Z,7.50
2022-08-26T03:01:45.181Z,9.05
2022-08-26T03:04:12.577Z,7.88
2022-08-26T03:06:41.637Z,7.57
2022-08-26T03:09:09.058Z,7.28
2022-08-26T03:11:36.734Z,7.97
2022-08-26T03:14:04.310Z,7.05
2022-08-26T03:16:36.240Z,7.72
2022-08-26T03:19:05.807Z,7.28
2022-08-26T03:21:33.345Z,9.48
2022-08-26T03:24:00.540Z,8.43
2022-08-26T03:26:28.754Z,8.93
2022-08-26T03:29:15.452Z,8.43
2022-08-26T03:31:43.873Z,6.93
2022-08-26T03:34:14.867Z,7.18
2022-08-26T03:36:42.134Z,8.13
2022-08-26T03:39:10.836Z,8.15
2022-08-26T03:41:38.128Z,8.60
2022-08-26T03:44:06.364Z,7.82
2022-08-26T03:46:33.792Z,8.02
2022-08-26T03:49:02.091Z,10.18
2022-08-26T03:51:29.726Z,8.00
2022-08-26T03:54:00.545Z,8.80
2022-08-26T03:56:27.738Z,9.00
2022-08-26T03:58:54.992Z,7.97
2022-08-26T04:01:22.242Z,8.52
2022-08-26T04:04:00.354Z,9.45
2022-08-26T04:06:46.100Z,9.63
2022-08-26T04:09:18.481Z,8.15
2022-08-26T04:11:47.429Z,8.68
2022-08-26T04:14:20.382Z,8.98
2022-08-26T04:16:48.212Z,7.80
2022-08-26T04:19:16.000Z,7.15
2022-08-26T04:21:45.016Z,7.95
2022-08-26T04:24:15.513Z,8.38
2022-08-26T04:26:43.823Z,7.40
2022-08-26T04:29:14.514Z,7.85
2022-08-26T04:31:42.013Z,9.43
2022-08-26T04:34:10.991Z,8.07
2022-08-26T04:36:38.534Z,8.23
2022-08-26T04:39:05.773Z,9.18
2022-08-26T04:41:33.546Z,9.73
2022-08-26T04:44:02.390Z,8.02
2022-08-26T04:46:30.124Z,10.30
2022-08-26T04:48:57.390Z,8.30
2022-08-26T04:51:28.125Z,7.90
2022-08-26T04:53:56.977Z,9.40
2022-08-26T04:56:29.344Z,7.68
2022-08-26T04:58:56.813Z,7.30
2022-08-26T05:01:24.375Z,9.25
2022-08-26T05:03:51.734Z,9.57
2022-08-26T05:06:19.976Z,9.07
2022-08-26T05:08:47.507Z,8.18
2022-08-26T05:11:15.321Z,9.02
2022-08-26T05:13:42.508Z,9.30
2022-08-26T05:16:11.869Z,9.02
2022-08-26T05:18:40.287Z,7.63
2022-08-26T05:21:07.515Z,8.10
2022-08-26T05:23:35.695Z,8.63
2022-08-26T05:26:07.704Z,7.55
2022-08-26T05:28:35.468Z,9.25
2022-08-26T05:31:15.532Z,9.65
2022-08-26T05:33:45.404Z,9.07
2022-08-26T05:36:15.640Z,9.93
2022-08-26T05:38:43.956Z,8.15
2022-08-26T05:41:28.259Z,8.15
2022-08-26T05:44:05.853Z,12.00
2022-08-26T05:46:34.431Z,9.02
2022-08-26T05:49:02.209Z,8.77
2022-08-26T05:51:30.863Z,8.50
2022-08-26T05:53:58.467Z,9.32
2022-08-26T05:56:27.643Z,8.15
2022-08-26T05:58:56.351Z,7.20
2022-08-26T06:01:26.966Z,8.38
2022-08-26T06:03:57.583Z,10.00
2022-08-26T06:06:32.739Z,7.85
2022-08-26T06:09:02.036Z,9.60
2022-08-26T06:11:32.130Z,8.10
2022-08-26T06:14:03.760Z,8.57
2022-08-26T06:16:34.704Z,8.85
2022-08-26T06:19:03.744Z,7.13
2022-08-26T06:21:40.054Z,8.73
2022-08-26T06:24:29.571Z,9.38
2022-08-26T06:27:01.118Z,7.18
2022-08-26T06:29:30.739Z,8.95
2022-08-26T06:31:58.045Z,7.35
2022-08-26T06:34:30.309Z,9.02
2022-08-26T06:36:59.923Z,7.55
2022-08-26T06:39:30.910Z,8.32
2022-08-26T06:42:00.023Z,7.88
2022-08-26T06:44:27.562Z,8.77
2022-08-26T06:46:55.500Z,7.55
2022-08-26T06:49:26.567Z,7.20
2022-08-26T06:51:58.093Z,7.00
2022-08-26T06:54:26.688Z,7.18
2022-08-26T06:56:53.891Z,6.65
2022-08-26T06:59:21.866Z,7.95
2022-08-26T07:01:49.639Z,6.53
2022-08-26T07:04:20.200Z,6.75
2022-08-26T07:06:52.267Z,7.53
2022-08-26T07:09:24.867Z,8.82
2022-08-26T07:11:52.402Z,6.82
2022-08-26T07:14:21.474Z,8.30
2022-08-26T07:16:50.191Z,7.45
2022-08-26T07:19:31.092Z,8.02
2022-08-26T07:22:03.974Z,8.82
2022-08-26T07:24:37.030Z,8.98
2022-08-26T07:27:06.765Z,9.05
2022-08-26T07:29:36.703Z,7.30
2022-08-26T07:32:04.568Z,8.15
2022-08-26T07:34:33.169Z,7.78
2022-08-26T07:37:01.199Z,7.75
2022-08-26T07:39:31.447Z,7.03
2022-08-26T07:42:01.423Z,7.00
2022-08-26T07:44:30.922Z,6.97
2022-08-26T07:46:59.373Z,8.63
2022-08-26T07:49:27.018Z,7.53
2022-08-26T07:51:55.356Z,6.78
2022-08-26T07:54:27.130Z,6.70
2022-08-26T07:56:55.934Z,8.02
2022-08-26T07:59:23.688Z,6.65
2022-08-26T08:01:51.011Z,7.10
2022-08-26T08:04:22.994Z,8.32
2022-08-26T08:06:53.948Z,7.25
2022-08-26T08:09:21.171Z,7.32
2022-08-26T08:11:49.890Z,6.93
2022-08-26T08:14:22.070Z,8.88
2022-08-26T08:16:51.214Z,7.03
2022-08-26T08:19:23.044Z,6.43
2022-08-26T08:21:51.145Z,6.03
2022-08-26T08:24:18.460Z,7.40
2022-08-26T08:26:46.005Z,7.07
2022-08-26T08:29:13.613Z,6.22
2022-08-26T08:31:58.483Z,6.00
2022-08-26T08:34:28.396Z,6.78
2022-08-26T08:36:57.522Z,7.43
2022-08-26T08:39:25.044Z,6.72
2022-08-26T08:42:16.012Z,5.30
2022-08-26T08:44:45.443Z,5.22
2022-08-26T08:47:36.414Z,6.40
2022-08-26T08:50:10.548Z,6.38
2022-08-26T08:52:41.424Z,5.80
2022-08-26T08:55:11.809Z,7.10
2022-08-26T08:57:53.630Z,7.78
2022-08-26T09:00:30.343Z,6.53
2022-08-26T09:03:11.875Z,6.18
2022-08-26T09:05:48.536Z,7.18
2022-08-26T09:08:19.888Z,5.47
2022-08-26T09:10:48.433Z,6.45
2022-08-26T09:13:25.244Z,7.45
2022-08-26T09:16:07.541Z,5.40
2022-08-26T09:18:34.626Z,6.88
2022-08-26T09:21:07.783Z,6.57
2022-08-26T09:23:37.342Z,5.97
2022-08-26T09:26:24.759Z,6.40
2022-08-26T09:28:58.939Z,5.97
2022-08-26T09:31:32.681Z,5.80
2022-08-26T09:34:19.921Z,6.78
2022-08-26T09:36:51.327Z,7.13
2022-08-26T09:39:24.162Z,6.60
2022-08-26T09:42:05.010Z,5.57
2022-08-26T09:44:32.835Z,7.13
2022-08-26T09:47:07.170Z,6.90
2022-08-26T09:49:39.303Z,6.18
2022-08-26T09:52:08.074Z,6.97
2022-08-26T09:54:36.332Z,6.15
2022-08-26T09:57:30.818Z,6.72
2022-08-26T10:00:00.912Z,6.25
2022-08-26T10:02:33.690Z,6.03
2022-08-26T10:05:09.503Z,5.75
2022-08-26T10:07:36.902Z,6.72
2022-08-26T10:10:09.175Z,6.40
2022-08-26T10:12:45.179Z,8.95
2022-08-26T10:15:14.937Z,7.18
2022-08-26T10:18:05.510Z,7.32
2022-08-26T10:20:36.683Z,7.20
2022-08-26T10:23:18.005Z,6.88
2022-08-26T10:26:02.984Z,7.57
2022-08-26T10:28:40.489Z,6.43
2022-08-26T10:31:14.760Z,7.07
2022-08-26T10:33:43.076Z,7.45
2022-08-26T10:36:43.088Z,6.43
2022-08-26T10:39:31.911Z,6.72
2022-08-26T10:42:07.454Z,7.50
2022-08-26T10:44:38.206Z,7.35
2022-08-26T10:47:57.544Z,7.00
2022-08-26T10:50:33.127Z,9.52
2022-08-26T10:53:34.354Z,5.97
2022-08-26T10:56:18.785Z,6.85
2022-08-26T10:58:49.632Z,6.38
2022-08-26T11:01:47.058Z,8.18
2022-08-26T11:04:23.976Z,7.65
2022-08-26T11:07:32.805Z,7.28
2022-08-26T11:10:06.696Z,8.13
2022-08-26T11:12:37.303Z,6.50
2022-08-26T11:15:11.068Z,7.57
2022-08-26T11:18:08.169Z,8.15
2022-08-26T11:20:42.133Z,7.40
2022-08-26T11:23:12.070Z,6.30
2022-08-26T11:26:10.080Z,7.07
2022-08-26T11:28:47.806Z,7.43
2022-08-26T11:31:27.072Z,7.00
2022-08-26T11:34:00.010Z,6.35
2022-08-26T11:36:45.574Z,7.03
2022-08-26T11:39:30.956Z,6.38
2022-08-26T11:42:16.990Z,6.78
2022-08-26T11:44:49.695Z,8.00
2022-08-26T11:47:17.768Z,7.20
2022-08-26T11:49:48.855Z,7.10
2022-08-26T11:52:36.664Z,8.40
2022-08-26T11:58:45.791Z,6.50
2022-08-26T12:01:33.242Z,7.03
2022-08-26T12:04:07.017Z,7.90
2022-08-26T12:06:42.037Z,4.45
2022-08-26T12:09:28.807Z,3.33
2022-08-26T12:12:16.100Z,3.20
2022-08-26T12:14:54.303Z,3.80
2022-08-26T12:17:40.761Z,3.80
2022-08-26T12:20:46.114Z,3.53
2022-08-26T12:23:53.000Z,4.03
2022-08-26T12:26:44.198Z,3.55
2022-08-26T12:29:37.236Z,3.60
2022-08-26T12:32:10.089Z,4.55
2022-08-26T12:34:47.002Z,3.92
2022-08-26T12:37:14.447Z,4.32
2022-08-26T12:39:44.461Z,4.30
2022-08-26T12:42:17.628Z,4.15
2022-08-26T12:44:54.089Z,4.40
2022-08-26T12:47:43.601Z,4.28
2022-08-26T12:50:21.771Z,4.43
2022-08-26T12:52:51.979Z,4.88
2022-08-26T12:55:24.683Z,3.92
2022-08-26T12:58:13.440Z,4.35
2022-08-26T13:00:46.493Z,4.25
2022-08-26T13:03:35.276Z,4.38
2022-08-26T13:06:08.464Z,4.68
2022-08-26T13:08:53.990Z,4.40
2022-08-26T13:11:31.893Z,4.10
2022-08-26T13:14:07.216Z,4.38
2022-08-26T13:16:36.033Z,3.83
2022-08-26T13:19:25.470Z,4.90
2022-08-26T13:21:55.288Z,6.50
2022-08-26T13:24:26.684Z,5.55
2022-08-26T13:26:53.874Z,6.03
2022-08-26T13:29:21.075Z,5.78
2022-08-26T13:31:49.333Z,6.35
2022-08-26T13:34:19.625Z,6.75
2022-08-26T13:36:48.022Z,5.15
2022-08-26T13:39:15.795Z,6.15
2022-08-26T13:41:43.306Z,5.65
2022-08-26T13:44:11.243Z,6.10
2022-08-26T13:46:38.738Z,5.72
2022-08-26T13:49:06.446Z,5.43
2022-08-26T13:51:34.136Z,6.30
2022-08-26T13:54:01.691Z,4.57
2022-08-26T13:56:29.834Z,5.65
2022-08-26T13:58:58.231Z,4.57
2022-08-26T14:01:26.154Z,4.80
2022-08-26T14:03:56.642Z,4.30
2022-08-26T14:06:34.037Z,4.53
2022-08-26T14:09:01.604Z,5.18
2022-08-26T14:12:15.659Z,5.32
2022-08-26T14:14:46.092Z,3.78
2022-08-26T14:17:19.659Z,4.78
2022-08-26T14:19:48.216Z,4.63
2022-08-26T14:22:17.638Z,4.35
2022-08-26T14:24:45.151Z,4.85
2022-08-26T14:27:12.873Z,5.55
2022-08-26T14:29:49.371Z,5.43
2022-08-26T14:32:24.478Z,5.45
2022-08-26T14:37:19.885Z,6.18
2022-08-26T14:39:48.307Z,5.82
2022-08-26T14:42:18.702Z,6.00
2022-08-26T14:44:52.777Z,4.53
2022-08-26T14:47:19.967Z,5.30
2022-08-26T14:49:47.226Z,5.80
2022-08-26T14:52:14.936Z,4.55
2022-08-26T14:54:42.443Z,4.72
2022-08-26T14:57:11.868Z,5.10
2022-08-26T14:59:49.762Z,4.47
2022-08-26T15:02:22.241Z,4.82
2022-08-26T15:05:02.141Z,6.15
2022-08-26T15:07:30.028Z,5.30
2022-08-26T15:09:57.296Z,5.32
2022-08-26T15:12:24.603Z,5.20
2022-08-26T15:14:51.820Z,6.38
2022-08-26T15:17:19.087Z,6.18
2022-08-26T15:19:46.523Z,6.25
2022-08-26T15:22:13.951Z,6.68
2022-08-26T15:24:41.107Z,5.88
2022-08-26T15:27:09.021Z,5.30
2022-08-26T15:29:36.482Z,6.18
2022-08-26T15:32:04.654Z,4.95
2022-08-26T15:34:32.109Z,5.22
2022-08-26T15:36:59.600Z,5.20
2022-08-26T15:39:27.186Z,4.78
2022-08-26T15:41:56.120Z,4.95
2022-08-26T15:44:25.074Z,4.88
2022-08-26T15:46:58.436Z,4.60
2022-08-26T15:49:26.529Z,5.10
2022-08-26T15:51:53.668Z,5.18
2022-08-26T15:54:22.756Z,4.47
2022-08-26T15:56:52.275Z,5.13
2022-08-26T15:59:20.710Z,5.50
2022-08-26T16:01:50.339Z,6.43
2022-08-26T16:04:18.560Z,5.97
2022-08-26T16:06:47.922Z,5.35
2022-08-26T16:09:15.146Z,6.03
2022-08-26T16:11:42.270Z,6.28
2022-08-26T16:14:09.801Z,5.55
2022-08-26T16:16:39.391Z,4.85
2022-08-26T16:19:07.896Z,4.70
2022-08-26T16:21:35.239Z,5.78
2022-08-26T16:24:03.339Z,5.53
2022-08-26T16:26:32.871Z,4.90
2022-08-26T16:29:06.519Z,4.47
2022-08-26T16:31:34.319Z,5.82
2022-08-26T16:34:01.902Z,5.32
2022-08-26T16:36:29.083Z,4.80
2022-08-26T16:38:56.403Z,6.00
2022-08-26T16:41:25.276Z,5.40
2022-08-26T16:43:53.079Z,5.88
2022-08-26T16:46:23.649Z,5.53
2022-08-26T16:48:55.092Z,5.78
2022-08-26T16:51:24.249Z,4.97
2022-08-26T16:53:52.378Z,4.78
2022-08-26T16:56:24.078Z,4.40
2022-08-26T16:59:04.700Z,4.53
2022-08-26T17:01:32.285Z,5.65
2022-08-26T17:03:59.604Z,5.00
2022-08-26T17:06:26.811Z,6.05
2022-08-26T17:08:54.121Z,5.97
2022-08-26T17:11:21.414Z,4.65
2022-08-26T17:13:48.884Z,5.47
2022-08-26T17:16:16.573Z,5.30
2022-08-26T17:18:43.950Z,4.60
2022-08-26T17:21:12.793Z,4.90
2022-08-26T17:23:41.270Z,4.93
2022-08-26T17:26:10.160Z,5.70
2022-08-26T17:28:37.872Z,5.13
2022-08-26T17:31:06.819Z,6.20
2022-08-26T17:33:34.204Z,5.13
2022-08-26T17:36:01.714Z,4.75
2022-08-26T17:38:29.221Z,5.30
2022-08-26T17:40:57.505Z,5.18
2022-08-26T17:43:27.903Z,5.68
2022-08-26T17:46:07.060Z,5.10
2022-08-26T17:48:36.610Z,6.75
2022-08-26T17:51:12.802Z,6.10
2022-08-26T17:53:41.351Z,5.47
2022-08-26T17:56:11.215Z,6.13
2022-08-26T17:58:39.132Z,7.10
2022-08-26T18:01:07.027Z,5.82
2022-08-26T18:03:35.271Z,5.15
2022-08-26T18:06:03.007Z,5.28
2022-08-26T18:08:30.355Z,5.13
2022-08-26T18:10:57.537Z,6.28
2022-08-26T18:13:27.787Z,6.07
2022-08-26T18:15:55.620Z,5.53
2022-08-26T18:18:22.935Z,5.80
2022-08-26T18:21:01.420Z,5.43
2022-08-26T18:23:29.389Z,5.57
2022-08-26T18:25:58.762Z,5.20
2022-08-26T18:28:26.286Z,5.22
2022-08-26T18:30:53.520Z,5.50
2022-08-26T18:33:24.405Z,5.95
2022-08-26T18:35:55.351Z,6.30
2022-08-26T18:38:22.727Z,6.82
2022-08-26T18:40:49.935Z,6.97
2022-08-26T18:43:17.211Z,6.00
2022-08-26T18:45:44.621Z,6.47
2022-08-26T18:48:12.364Z,6.47
2022-08-26T18:50:40.885Z,7.85
2022-08-26T18:53:08.270Z,7.75
2022-08-26T18:55:35.566Z,6.60
2022-08-26T18:58:02.876Z,6.10
2022-08-26T19:00:31.589Z,6.53
2022-08-26T19:02:58.893Z,5.93
2022-08-26T19:05:27.924Z,6.50
2022-08-26T19:07:56.565Z,5.85
2022-08-26T19:10:24.773Z,7.45
2022-08-26T19:12:53.724Z,6.88
2022-08-26T19:15:25.713Z,6.03
2022-08-26T19:17:52.926Z,5.57
2022-08-26T19:20:20.446Z,5.88
2022-08-26T19:22:47.598Z,6.20
2022-08-26T19:25:15.292Z,7.97
2022-08-26T19:27:42.518Z,7.25
2022-08-26T19:30:10.219Z,7.55
2022-08-26T19:32:37.396Z,6.53
2022-08-26T19:35:06.105Z,7.60
2022-08-26T19:37:33.356Z,7.45
2022-08-26T19:40:00.629Z,7.43
2022-08-26T19:42:27.971Z,7.88
2022-08-26T19:45:24.525Z,8.45
2022-08-26T19:47:53.623Z,7.93
2022-08-26T19:50:22.128Z,8.13
2022-08-26T19:52:49.383Z,7.63
2022-08-26T19:55:18.533Z,8.27
2022-08-26T19:57:45.791Z,8.80
2022-08-26T20:00:15.989Z,8.30
2022-08-26T20:02:44.271Z,9.48
2022-08-26T20:05:13.399Z,8.90
2022-08-26T20:07:41.135Z,8.95
2022-08-26T20:10:10.057Z,8.02
2022-08-26T20:12:37.406Z,8.77
2022-08-26T20:15:05.396Z,9.48
2022-08-26T20:17:32.657Z,7.82
2022-08-26T20:20:29.702Z,8.63
2022-08-26T20:23:03.688Z,9.45
2022-08-26T20:25:32.560Z,8.70
2022-08-26T20:28:00.657Z,8.20
2022-08-26T20:30:28.219Z,7.13
2022-08-26T20:32:55.633Z,8.50
2022-08-26T20:35:23.941Z,10.25
2022-08-26T20:37:51.506Z,9.65
2022-08-26T20:40:19.050Z,8.30
2022-08-26T20:42:46.240Z,8.07
2022-08-26T20:49:28.203Z,9.10
2022-08-26T20:51:55.487Z,8.10
2022-08-26T20:54:28.210Z,8.18
2022-08-26T20:56:56.807Z,7.72
2022-08-26T20:59:24.594Z,8.32
2022-08-26T21:01:52.515Z,9.35
2022-08-26T21:04:23.247Z,7.25
2022-08-26T21:06:54.416Z,7.10
2022-08-26T21:09:23.530Z,7.70
2022-08-26T21:11:51.966Z,8.00
2022-08-26T21:14:20.546Z,7.15
2022-08-26T21:16:48.233Z,7.70
2022-08-26T21:19:17.963Z,6.65
2022-08-26T21:21:46.647Z,6.18
2022-08-26T21:24:13.987Z,6.93
2022-08-26T21:26:41.226Z,7.07
2022-08-26T21:29:09.823Z,6.60
2022-08-26T21:31:44.923Z,6.20
2022-08-26T21:34:14.045Z,7.75
2022-08-26T21:36:41.772Z,7.68
2022-08-26T21:39:11.788Z,7.50
2022-08-26T21:41:40.911Z,7.75
2022-08-26T21:44:08.808Z,7.95
2022-08-26T21:46:37.529Z,8.05
2022-08-26T21:49:09.669Z,7.95
2022-08-26T21:51:42.326Z,8.38
2022-08-26T21:54:11.490Z,6.50
2022-08-26T21:56:49.496Z,7.85
2022-08-26T21:59:24.052Z,6.53
2022-08-26T22:01:52.844Z,7.07
2022-08-26T22:04:20.629Z,8.48
2022-08-26T22:06:53.803Z,7.97
2022-08-26T22:09:27.838Z,7.57
2022-08-26T22:11:56.961Z,9.80
2022-08-26T22:14:30.493Z,8.85
2022-08-26T22:17:02.800Z,6.93
2022-08-26T22:19:39.146Z,7.28
2022-08-26T22:24:57.043Z,7.55
2022-08-26T22:27:26.697Z,8.20
2022-08-26T22:29:55.508Z,7.65
2022-08-26T22:32:23.814Z,7.97
2022-08-26T22:34:58.503Z,7.85
2022-08-26T22:37:25.792Z,7.78
2022-08-26T22:39:54.766Z,7.85
2022-08-26T22:42:24.692Z,7.97
2022-08-26T22:44:52.968Z,8.35
2022-08-26T22:47:21.727Z,8.10
2022-08-26T22:49:50.458Z,7.90
2022-08-26T22:52:20.850Z,9.80
2022-08-26T22:54:52.140Z,8.52
2022-08-26T22:57:30.470Z,9.55
2022-08-26T22:59:58.752Z,10.23
2022-08-26T23:02:28.960Z,9.25
2022-08-26T23:05:01.662Z,8.52
2022-08-26T23:07:32.748Z,8.60
2022-08-26T23:10:02.106Z,7.90
2022-08-26T23:12:29.440Z,7.95
2022-08-26T23:14:58.030Z,7.03
2022-08-26T23:17:27.370Z,8.07
2022-08-26T23:19:57.197Z,6.88
2022-08-26T23:22:26.041Z,7.43
2022-08-26T23:27:40.437Z,6.45
2022-08-26T23:30:24.006Z,7.38
2022-08-26T23:32:53.837Z,8.90
2022-08-26T23:35:29.315Z,6.47
2022-08-26T23:37:59.110Z,8.82
2022-08-26T23:40:34.798Z,7.22
2022-08-26T23:43:12.632Z,7.47
2022-08-26T23:45:43.653Z,8.38
2022-08-26T23:48:11.775Z,8.10
2022-08-26T23:51:05.682Z,7.15
2022-08-26T23:53:41.033Z,7.45
2022-08-26T23:56:17.105Z,6.80
2022-08-26T23:58:50.612Z,8.38
